Marib Airport, Yemen

12:49 AM AST on August 22, 2014 (GMT +0300)
Marib | Change Station
CLOSE
Current Station
Airport
Location: Marib Airport,
Elevation: 3281 ft
Nearby Weather Stations

Elev 3281 ft 15.43 °N, 45.33 °E | Updated 6 hours ago

Partly Cloudy
Partly Cloudy
83 °F
Feels Like 83 °F
N
6
Wind Variable Wind from NNE
Gusts mph

Today
High -- | Low -- °F
--% Chance of Precip.
Yesterday
High -- | Low -- °F
Precip. -- in
5:44 AM 6:18 PM
Waning Crescent, 12% visible
Pressure 29.80 in
Visibility 5.0 miles
Clouds
Dew Point 40 °F
Humidity 21%
Rainfall 0.00 in
Snow Depth Not available.
UV Not available.
Pollen Not available.
Air Quality Not available.
Flu Activity Not available.
METAR OYMB 211500Z 06006KT 8000 NSC 32/05 Q1009

More Conditions Fewer Conditions

Pressure 29.80 in
Visibility 5.0 miles
Clouds
Dew Point 40 °F
Humidity 21%
Rainfall 0.00 in
Snow Depth Not available.
UV Not available.
Pollen Not available.
Air Quality Not available.
Flu Activity Not available.
METAR OYMB 211500Z 06006KT 8000 NSC 32/05 Q1009

More Conditions Fewer Conditions

10-Day Weather Forecast

Almanac

Astronomy

Aug. 22, 2014 Rise Set
Actual Time 5:44 AM AST 6:18 PM AST
Civil Twilight 5:22 AM AST 6:40 PM AST
Nautical Twilight 4:57 AM AST 7:05 PM AST
Astronomical Twilight 4:31 AM AST 7:31 PM AST
Moon 3:00 AM AST (8/22) 4:01 PM AST (8/22)
Length of Visible Light 13h 17m
Length of Day
12h 33m
Tomorrow will be 0m 49s shorter.
Waning Crescent, 12% of the Moon is Illuminated
Aug 21
Waning Crescent
Aug 25
New
Sep 2
First Quarter
Sep 8
Full
Sep 15
Last Quarter

Yesterday's Extremes

Country Highs Country Lows

Community

WunderPhotos

Upload Photos

1,746,021 photos uploaded!

WunderBlogs® & News

Nearby

Snow Depth

Not available.

Earthquake Activity

City Distance Mag. Time & Date
No recent earthquake activity has been reported nearby.
Minimum magnitude displayed is 2.5.

Coastal Water Temperatures

Place Temperature
No Stations Reporting

Nearby Weather Stations